sensor_id;sensor_type;location;lat;lon;timestamp;P1;durP1;ratioP1;P2;durP2;ratioP2
59970;SDS011;45825;45.434;9.116;2023-06-14T00:01:24;22.70;;;18.63;;
59970;SDS011;45825;45.434;9.116;2023-06-14T00:03:50;22.08;;;19.58;;
59970;SDS011;45825;45.434;9.116;2023-06-14T00:06:15;21.55;;;19.35;;
59970;SDS011;45825;45.434;9.116;2023-06-14T00:08:40;22.95;;;20.50;;
59970;SDS011;45825;45.434;9.116;2023-06-14T00:11:06;24.35;;;21.77;;
59970;SDS011;45825;45.434;9.116;2023-06-14T00:13:32;23.02;;;20.52;;
59970;SDS011;45825;45.434;9.116;2023-06-14T00:15:58;24.27;;;21.65;;
59970;SDS011;45825;45.434;9.116;2023-06-14T00:18:23;26.25;;;23.45;;
59970;SDS011;45825;45.434;9.116;2023-06-14T00:20:49;27.02;;;24.15;;
59970;SDS011;45825;45.434;9.116;2023-06-14T00:23:15;26.98;;;23.83;;
59970;SDS011;45825;45.434;9.116;2023-06-14T00:25:40;27.52;;;24.70;;
59970;SDS011;45825;45.434;9.116;2023-06-14T00:28:05;29.02;;;25.73;;
59970;SDS011;45825;45.434;9.116;2023-06-14T00:30:31;28.88;;;25.77;;
59970;SDS011;45825;45.434;9.116;2023-06-14T00:32:56;27.38;;;24.50;;
59970;SDS011;45825;45.434;9.116;2023-06-14T00:35:22;28.27;;;25.38;;
59970;SDS011;45825;45.434;9.116;2023-06-14T00:37:47;27.00;;;24.15;;
59970;SDS011;45825;45.434;9.116;2023-06-14T00:40:12;25.73;;;22.40;;
59970;SDS011;45825;45.434;9.116;2023-06-14T00:42:38;22.67;;;19.52;;
59970;SDS011;45825;45.434;9.116;2023-06-14T00:45:03;20.88;;;18.67;;
59970;SDS011;45825;45.434;9.116;2023-06-14T00:47:29;19.38;;;17.27;;
59970;SDS011;45825;45.434;9.116;2023-06-14T00:49:54;19.55;;;16.25;;
59970;SDS011;45825;45.434;9.116;2023-06-14T00:52:21;17.95;;;15.10;;
59970;SDS011;45825;45.434;9.116;2023-06-14T00:54:49;16.73;;;14.52;;
59970;SDS011;45825;45.434;9.116;2023-06-14T00:57:14;18.48;;;13.55;;
59970;SDS011;45825;45.434;9.116;2023-06-14T00:59:44;16.10;;;13.50;;
59970;SDS011;45825;45.434;9.116;2023-06-14T01:02:12;16.35;;;13.80;;
59970;SDS011;45825;45.434;9.116;2023-06-14T01:04:38;16.23;;;14.27;;
59970;SDS011;45825;45.434;9.116;2023-06-14T01:07:18;13.80;;;12.07;;
59970;SDS011;45825;45.434;9.116;2023-06-14T01:12:53;16.45;;;14.00;;
59970;SDS011;45825;45.434;9.116;2023-06-14T01:15:20;16.23;;;14.43;;
59970;SDS011;45825;45.434;9.116;2023-06-14T01:17:46;17.75;;;15.65;;
59970;SDS011;45825;45.434;9.116;2023-06-14T01:20:16;17.93;;;14.30;;
59970;SDS011;45825;45.434;9.116;2023-06-14T01:22:50;20.02;;;13.80;;
59970;SDS011;45825;45.434;9.116;2023-06-14T01:25:19;14.88;;;12.57;;
59970;SDS011;45825;45.434;9.116;2023-06-14T01:27:53;16.55;;;13.27;;
59970;SDS011;45825;45.434;9.116;2023-06-14T01:30:22;14.77;;;11.20;;
59970;SDS011;45825;45.434;9.116;2023-06-14T01:32:50;14.32;;;10.68;;
59970;SDS011;45825;45.434;9.116;2023-06-14T01:35:17;14.75;;;11.35;;
59970;SDS011;45825;45.434;9.116;2023-06-14T01:37:43;16.25;;;12.65;;
59970;SDS011;45825;45.434;9.116;2023-06-14T01:40:10;16.20;;;12.35;;
59970;SDS011;45825;45.434;9.116;2023-06-14T01:42:37;15.02;;;11.40;;
59970;SDS011;45825;45.434;9.116;2023-06-14T01:45:06;13.23;;;10.77;;
59970;SDS011;45825;45.434;9.116;2023-06-14T01:47:32;12.30;;;9.75;;
59970;SDS011;45825;45.434;9.116;2023-06-14T01:49:59;14.27;;;10.27;;
59970;SDS011;45825;45.434;9.116;2023-06-14T01:52:24;12.98;;;9.80;;
59970;SDS011;45825;45.434;9.116;2023-06-14T01:54:50;12.75;;;8.68;;
59970;SDS011;45825;45.434;9.116;2023-06-14T01:57:16;8.82;;;6.90;;
59970;SDS011;45825;45.434;9.116;2023-06-14T01:59:41;8.43;;;5.93;;
59970;SDS011;45825;45.434;9.116;2023-06-14T02:02:06;9.10;;;6.63;;
59970;SDS011;45825;45.434;9.116;2023-06-14T02:04:32;10.30;;;5.85;;
59970;SDS011;45825;45.434;9.116;2023-06-14T02:06:57;8.32;;;6.25;;
59970;SDS011;45825;45.434;9.116;2023-06-14T02:09:22;10.98;;;7.50;;
59970;SDS011;45825;45.434;9.116;2023-06-14T02:11:48;11.93;;;7.97;;
59970;SDS011;45825;45.434;9.116;2023-06-14T02:14:14;8.98;;;6.00;;
59970;SDS011;45825;45.434;9.116;2023-06-14T02:16:39;8.93;;;6.20;;
59970;SDS011;45825;45.434;9.116;2023-06-14T02:19:05;10.93;;;7.15;;
59970;SDS011;45825;45.434;9.116;2023-06-14T02:21:30;15.05;;;12.18;;
59970;SDS011;45825;45.434;9.116;2023-06-14T02:23:56;13.43;;;11.38;;
59970;SDS011;45825;45.434;9.116;2023-06-14T02:26:21;12.95;;;10.25;;
59970;SDS011;45825;45.434;9.116;2023-06-14T02:28:47;14.07;;;12.13;;
59970;SDS011;45825;45.434;9.116;2023-06-14T02:31:16;12.68;;;8.00;;
59970;SDS011;45825;45.434;9.116;2023-06-14T02:33:41;10.32;;;6.80;;
59970;SDS011;45825;45.434;9.116;2023-06-14T02:36:06;9.02;;;5.93;;
59970;SDS011;45825;45.434;9.116;2023-06-14T02:38:32;8.40;;;4.47;;
59970;SDS011;45825;45.434;9.116;2023-06-14T02:40:57;6.97;;;4.60;;
59970;SDS011;45825;45.434;9.116;2023-06-14T02:43:24;7.93;;;4.30;;
59970;SDS011;45825;45.434;9.116;2023-06-14T02:45:49;6.57;;;4.13;;
59970;SDS011;45825;45.434;9.116;2023-06-14T02:48:15;6.75;;;3.83;;
59970;SDS011;45825;45.434;9.116;2023-06-14T02:50:40;6.57;;;3.95;;
59970;SDS011;45825;45.434;9.116;2023-06-14T02:53:06;5.88;;;3.63;;
59970;SDS011;45825;45.434;9.116;2023-06-14T02:55:31;6.18;;;3.70;;
59970;SDS011;45825;45.434;9.116;2023-06-14T02:57:56;7.25;;;3.67;;
59970;SDS011;45825;45.434;9.116;2023-06-14T03:00:22;6.45;;;3.85;;
59970;SDS011;45825;45.434;9.116;2023-06-14T03:02:48;6.43;;;3.60;;
59970;SDS011;45825;45.434;9.116;2023-06-14T03:05:13;6.38;;;3.50;;
59970;SDS011;45825;45.434;9.116;2023-06-14T03:07:39;6.05;;;3.60;;
59970;SDS011;45825;45.434;9.116;2023-06-14T03:10:06;5.88;;;3.85;;
59970;SDS011;45825;45.434;9.116;2023-06-14T03:12:35;7.45;;;3.90;;
59970;SDS011;45825;45.434;9.116;2023-06-14T03:15:01;7.35;;;3.78;;
59970;SDS011;45825;45.434;9.116;2023-06-14T03:17:27;7.93;;;3.70;;
59970;SDS011;45825;45.434;9.116;2023-06-14T03:19:55;7.05;;;3.58;;
59970;SDS011;45825;45.434;9.116;2023-06-14T03:22:20;5.82;;;3.78;;
59970;SDS011;45825;45.434;9.116;2023-06-14T03:24:46;5.53;;;3.45;;
59970;SDS011;45825;45.434;9.116;2023-06-14T03:27:12;7.03;;;3.78;;
59970;SDS011;45825;45.434;9.116;2023-06-14T03:29:37;5.25;;;3.40;;
59970;SDS011;45825;45.434;9.116;2023-06-14T03:32:03;6.32;;;3.50;;
59970;SDS011;45825;45.434;9.116;2023-06-14T03:34:28;7.18;;;3.53;;
59970;SDS011;45825;45.434;9.116;2023-06-14T03:36:54;5.75;;;3.40;;
59970;SDS011;45825;45.434;9.116;2023-06-14T03:39:19;5.15;;;3.13;;
59970;SDS011;45825;45.434;9.116;2023-06-14T03:41:45;5.13;;;3.40;;
59970;SDS011;45825;45.434;9.116;2023-06-14T03:44:10;6.05;;;3.35;;
59970;SDS011;45825;45.434;9.116;2023-06-14T03:46:36;6.40;;;3.65;;
59970;SDS011;45825;45.434;9.116;2023-06-14T03:49:01;6.82;;;3.45;;
59970;SDS011;45825;45.434;9.116;2023-06-14T03:51:27;5.75;;;3.63;;
59970;SDS011;45825;45.434;9.116;2023-06-14T03:53:53;5.15;;;3.58;;
59970;SDS011;45825;45.434;9.116;2023-06-14T03:56:19;5.00;;;3.20;;
59970;SDS011;45825;45.434;9.116;2023-06-14T03:58:44;5.57;;;3.45;;
59970;SDS011;45825;45.434;9.116;2023-06-14T04:01:10;5.85;;;3.55;;
59970;SDS011;45825;45.434;9.116;2023-06-14T04:03:37;5.93;;;3.70;;
59970;SDS011;45825;45.434;9.116;2023-06-14T04:06:02;6.40;;;3.38;;
59970;SDS011;45825;45.434;9.116;2023-06-14T04:08:29;5.28;;;3.22;;
59970;SDS011;45825;45.434;9.116;2023-06-14T04:10:54;7.18;;;3.45;;
59970;SDS011;45825;45.434;9.116;2023-06-14T04:13:20;5.93;;;4.05;;
59970;SDS011;45825;45.434;9.116;2023-06-14T04:15:45;6.03;;;3.70;;
59970;SDS011;45825;45.434;9.116;2023-06-14T04:18:11;7.20;;;3.88;;
59970;SDS011;45825;45.434;9.116;2023-06-14T04:20:37;5.57;;;3.40;;
59970;SDS011;45825;45.434;9.116;2023-06-14T04:23:15;6.53;;;3.08;;
59970;SDS011;45825;45.434;9.116;2023-06-14T04:25:43;5.20;;;2.95;;
59970;SDS011;45825;45.434;9.116;2023-06-14T04:28:13;7.47;;;3.30;;
59970;SDS011;45825;45.434;9.116;2023-06-14T04:30:43;5.75;;;2.85;;
59970;SDS011;45825;45.434;9.116;2023-06-14T04:33:09;5.65;;;3.45;;
59970;SDS011;45825;45.434;9.116;2023-06-14T04:35:35;5.47;;;3.08;;
59970;SDS011;45825;45.434;9.116;2023-06-14T04:38:02;5.95;;;3.55;;
59970;SDS011;45825;45.434;9.116;2023-06-14T04:40:34;5.57;;;3.60;;
59970;SDS011;45825;45.434;9.116;2023-06-14T04:43:01;7.78;;;3.63;;
59970;SDS011;45825;45.434;9.116;2023-06-14T04:45:29;8.38;;;4.93;;
59970;SDS011;45825;45.434;9.116;2023-06-14T04:47:56;6.32;;;4.25;;
59970;SDS011;45825;45.434;9.116;2023-06-14T04:50:24;5.40;;;3.72;;
59970;SDS011;45825;45.434;9.116;2023-06-14T04:52:49;4.95;;;3.20;;
59970;SDS011;45825;45.434;9.116;2023-06-14T04:55:16;5.75;;;3.22;;
59970;SDS011;45825;45.434;9.116;2023-06-14T04:57:41;6.45;;;4.03;;
59970;SDS011;45825;45.434;9.116;2023-06-14T05:00:07;7.40;;;4.43;;
59970;SDS011;45825;45.434;9.116;2023-06-14T05:02:35;9.55;;;6.78;;
59970;SDS011;45825;45.434;9.116;2023-06-14T05:05:02;9.10;;;6.07;;
59970;SDS011;45825;45.434;9.116;2023-06-14T05:07:31;6.25;;;3.60;;
59970;SDS011;45825;45.434;9.116;2023-06-14T05:09:57;6.60;;;4.32;;
59970;SDS011;45825;45.434;9.116;2023-06-14T05:12:22;9.40;;;5.47;;
59970;SDS011;45825;45.434;9.116;2023-06-14T05:14:48;8.35;;;5.53;;
59970;SDS011;45825;45.434;9.116;2023-06-14T05:17:14;9.27;;;5.30;;
59970;SDS011;45825;45.434;9.116;2023-06-14T05:19:39;13.05;;;7.50;;
59970;SDS011;45825;45.434;9.116;2023-06-14T05:22:05;9.48;;;6.93;;
59970;SDS011;45825;45.434;9.116;2023-06-14T05:24:31;6.97;;;4.82;;
59970;SDS011;45825;45.434;9.116;2023-06-14T05:26:57;7.13;;;3.67;;
59970;SDS011;45825;45.434;9.116;2023-06-14T05:29:22;5.45;;;2.90;;
59970;SDS011;45825;45.434;9.116;2023-06-14T05:31:47;5.30;;;3.15;;
59970;SDS011;45825;45.434;9.116;2023-06-14T05:34:13;5.25;;;3.38;;
59970;SDS011;45825;45.434;9.116;2023-06-14T05:36:38;6.25;;;3.30;;
59970;SDS011;45825;45.434;9.116;2023-06-14T05:39:04;5.72;;;3.40;;
59970;SDS011;45825;45.434;9.116;2023-06-14T05:41:30;6.97;;;3.72;;
59970;SDS011;45825;45.434;9.116;2023-06-14T05:43:56;5.57;;;3.53;;
59970;SDS011;45825;45.434;9.116;2023-06-14T05:46:22;6.10;;;3.47;;
59970;SDS011;45825;45.434;9.116;2023-06-14T05:48:53;6.65;;;3.90;;
59970;SDS011;45825;45.434;9.116;2023-06-14T05:51:19;7.07;;;4.28;;
59970;SDS011;45825;45.434;9.116;2023-06-14T05:53:48;6.30;;;4.10;;
59970;SDS011;45825;45.434;9.116;2023-06-14T05:56:14;8.18;;;3.80;;
59970;SDS011;45825;45.434;9.116;2023-06-14T05:58:40;7.43;;;4.63;;
59970;SDS011;45825;45.434;9.116;2023-06-14T06:01:05;7.72;;;5.45;;
59970;SDS011;45825;45.434;9.116;2023-06-14T06:03:31;8.20;;;4.65;;
59970;SDS011;45825;45.434;9.116;2023-06-14T06:05:57;9.27;;;4.85;;
59970;SDS011;45825;45.434;9.116;2023-06-14T06:08:23;9.43;;;5.18;;
59970;SDS011;45825;45.434;9.116;2023-06-14T06:10:48;8.10;;;6.07;;
59970;SDS011;45825;45.434;9.116;2023-06-14T06:13:13;8.65;;;5.60;;
59970;SDS011;45825;45.434;9.116;2023-06-14T06:15:38;8.10;;;4.95;;
59970;SDS011;45825;45.434;9.116;2023-06-14T06:18:04;6.97;;;4.38;;
59970;SDS011;45825;45.434;9.116;2023-06-14T06:20:29;6.95;;;4.78;;
59970;SDS011;45825;45.434;9.116;2023-06-14T06:22:56;6.55;;;4.32;;
59970;SDS011;45825;45.434;9.116;2023-06-14T06:25:23;7.43;;;4.60;;
59970;SDS011;45825;45.434;9.116;2023-06-14T06:27:50;7.50;;;4.93;;
59970;SDS011;45825;45.434;9.116;2023-06-14T06:30:16;8.88;;;4.68;;
59970;SDS011;45825;45.434;9.116;2023-06-14T06:32:41;7.57;;;4.75;;
59970;SDS011;45825;45.434;9.116;2023-06-14T06:35:06;8.52;;;4.63;;
59970;SDS011;45825;45.434;9.116;2023-06-14T06:37:33;7.25;;;4.60;;
59970;SDS011;45825;45.434;9.116;2023-06-14T06:39:59;39.92;;;7.40;;
59970;SDS011;45825;45.434;9.116;2023-06-14T06:42:24;43.40;;;7.07;;
59970;SDS011;45825;45.434;9.116;2023-06-14T06:44:50;10.63;;;4.93;;
59970;SDS011;45825;45.434;9.116;2023-06-14T06:47:15;25.70;;;5.57;;
59970;SDS011;45825;45.434;9.116;2023-06-14T06:49:40;10.55;;;5.57;;
59970;SDS011;45825;45.434;9.116;2023-06-14T06:52:06;7.32;;;4.88;;
59970;SDS011;45825;45.434;9.116;2023-06-14T06:54:33;7.28;;;4.90;;
59970;SDS011;45825;45.434;9.116;2023-06-14T06:56:58;7.53;;;5.30;;
59970;SDS011;45825;45.434;9.116;2023-06-14T06:59:24;9.07;;;4.72;;
59970;SDS011;45825;45.434;9.116;2023-06-14T07:01:50;10.15;;;5.60;;
59970;SDS011;45825;45.434;9.116;2023-06-14T07:04:15;9.13;;;5.90;;
59970;SDS011;45825;45.434;9.116;2023-06-14T07:06:41;9.05;;;5.80;;
59970;SDS011;45825;45.434;9.116;2023-06-14T07:09:07;12.35;;;5.78;;
59970;SDS011;45825;45.434;9.116;2023-06-14T07:11:37;8.05;;;5.63;;
59970;SDS011;45825;45.434;9.116;2023-06-14T07:14:02;9.10;;;5.43;;
59970;SDS011;45825;45.434;9.116;2023-06-14T07:16:27;9.73;;;5.55;;
59970;SDS011;45825;45.434;9.116;2023-06-14T07:18:53;9.57;;;5.25;;
59970;SDS011;45825;45.434;9.116;2023-06-14T07:21:18;9.70;;;5.78;;
59970;SDS011;45825;45.434;9.116;2023-06-14T07:23:43;8.18;;;4.85;;
59970;SDS011;45825;45.434;9.116;2023-06-14T07:26:09;9.52;;;5.07;;
59970;SDS011;45825;45.434;9.116;2023-06-14T07:28:34;8.45;;;4.80;;
59970;SDS011;45825;45.434;9.116;2023-06-14T07:30:59;7.97;;;5.15;;
59970;SDS011;45825;45.434;9.116;2023-06-14T07:33:25;9.52;;;4.85;;
59970;SDS011;45825;45.434;9.116;2023-06-14T07:35:50;8.73;;;4.63;;
59970;SDS011;45825;45.434;9.116;2023-06-14T07:38:17;8.20;;;4.53;;
59970;SDS011;45825;45.434;9.116;2023-06-14T07:40:42;9.07;;;4.82;;
59970;SDS011;45825;45.434;9.116;2023-06-14T07:43:08;8.20;;;4.22;;
59970;SDS011;45825;45.434;9.116;2023-06-14T07:45:33;6.65;;;3.97;;
59970;SDS011;45825;45.434;9.116;2023-06-14T07:47:58;8.23;;;4.53;;
59970;SDS011;45825;45.434;9.116;2023-06-14T07:50:24;7.57;;;4.68;;
59970;SDS011;45825;45.434;9.116;2023-06-14T07:52:49;8.50;;;5.25;;
59970;SDS011;45825;45.434;9.116;2023-06-14T07:55:14;8.85;;;5.20;;
59970;SDS011;45825;45.434;9.116;2023-06-14T07:57:40;8.00;;;5.53;;
59970;SDS011;45825;45.434;9.116;2023-06-14T08:00:06;9.07;;;5.55;;
59970;SDS011;45825;45.434;9.116;2023-06-14T08:02:31;9.32;;;5.88;;
59970;SDS011;45825;45.434;9.116;2023-06-14T08:04:57;11.05;;;6.07;;
59970;SDS011;45825;45.434;9.116;2023-06-14T08:07:23;10.15;;;6.28;;
59970;SDS011;45825;45.434;9.116;2023-06-14T08:09:48;13.50;;;6.00;;
59970;SDS011;45825;45.434;9.116;2023-06-14T08:12:14;13.45;;;6.30;;
59970;SDS011;45825;45.434;9.116;2023-06-14T08:14:39;11.32;;;7.00;;
59970;SDS011;45825;45.434;9.116;2023-06-14T08:17:05;10.55;;;6.35;;
59970;SDS011;45825;45.434;9.116;2023-06-14T08:19:30;13.15;;;6.53;;
59970;SDS011;45825;45.434;9.116;2023-06-14T08:21:56;12.57;;;6.75;;
59970;SDS011;45825;45.434;9.116;2023-06-14T08:24:22;9.07;;;6.75;;
59970;SDS011;45825;45.434;9.116;2023-06-14T08:26:52;10.23;;;6.57;;
59970;SDS011;45825;45.434;9.116;2023-06-14T08:29:17;8.88;;;5.97;;
59970;SDS011;45825;45.434;9.116;2023-06-14T08:31:43;9.20;;;6.90;;
59970;SDS011;45825;45.434;9.116;2023-06-14T08:34:08;11.88;;;7.00;;
59970;SDS011;45825;45.434;9.116;2023-06-14T08:36:34;33.63;;;9.20;;
59970;SDS011;45825;45.434;9.116;2023-06-14T08:39:00;27.20;;;7.75;;
59970;SDS011;45825;45.434;9.116;2023-06-14T08:41:25;21.60;;;7.95;;
59970;SDS011;45825;45.434;9.116;2023-06-14T08:43:54;10.48;;;7.20;;
59970;SDS011;45825;45.434;9.116;2023-06-14T08:46:20;12.90;;;7.60;;
59970;SDS011;45825;45.434;9.116;2023-06-14T08:48:46;11.10;;;7.90;;
59970;SDS011;45825;45.434;9.116;2023-06-14T08:51:14;9.65;;;7.13;;
59970;SDS011;45825;45.434;9.116;2023-06-14T08:53:43;11.65;;;7.97;;
59970;SDS011;45825;45.434;9.116;2023-06-14T08:56:09;12.10;;;7.88;;
59970;SDS011;45825;45.434;9.116;2023-06-14T08:58:38;15.25;;;7.50;;
59970;SDS011;45825;45.434;9.116;2023-06-14T09:01:14;15.77;;;8.80;;
59970;SDS011;45825;45.434;9.116;2023-06-14T09:03:41;14.32;;;8.70;;
59970;SDS011;45825;45.434;9.116;2023-06-14T09:06:08;49.45;;;12.02;;
59970;SDS011;45825;45.434;9.116;2023-06-14T09:11:05;14.38;;;8.30;;
59970;SDS011;45825;45.434;9.116;2023-06-14T09:13:30;13.73;;;8.40;;
59970;SDS011;45825;45.434;9.116;2023-06-14T09:15:56;12.18;;;8.77;;
59970;SDS011;45825;45.434;9.116;2023-06-14T09:18:21;17.85;;;8.27;;
59970;SDS011;45825;45.434;9.116;2023-06-14T09:20:46;13.50;;;8.48;;
59970;SDS011;45825;45.434;9.116;2023-06-14T09:23:17;11.68;;;8.30;;
59970;SDS011;45825;45.434;9.116;2023-06-14T09:25:46;11.93;;;8.07;;
59970;SDS011;45825;45.434;9.116;2023-06-14T09:28:12;14.15;;;7.57;;
59970;SDS011;45825;45.434;9.116;2023-06-14T09:30:37;12.80;;;7.22;;
59970;SDS011;45825;45.434;9.116;2023-06-14T09:33:03;14.48;;;8.55;;
59970;SDS011;45825;45.434;9.116;2023-06-14T09:35:30;13.98;;;8.88;;
59970;SDS011;45825;45.434;9.116;2023-06-14T09:37:57;12.05;;;8.85;;
59970;SDS011;45825;45.434;9.116;2023-06-14T09:40:22;16.05;;;8.55;;
59970;SDS011;45825;45.434;9.116;2023-06-14T09:42:48;16.83;;;9.23;;
59970;SDS011;45825;45.434;9.116;2023-06-14T09:45:15;11.75;;;8.00;;
59970;SDS011;45825;45.434;9.116;2023-06-14T09:47:44;11.35;;;7.85;;
59970;SDS011;45825;45.434;9.116;2023-06-14T09:50:10;12.63;;;7.82;;
59970;SDS011;45825;45.434;9.116;2023-06-14T09:52:35;16.13;;;8.85;;
59970;SDS011;45825;45.434;9.116;2023-06-14T09:55:01;13.43;;;9.18;;
59970;SDS011;45825;45.434;9.116;2023-06-14T09:57:41;14.18;;;7.32;;
59970;SDS011;45825;45.434;9.116;2023-06-14T10:00:10;10.57;;;7.82;;
59970;SDS011;45825;45.434;9.116;2023-06-14T10:02:38;12.05;;;8.05;;
59970;SDS011;45825;45.434;9.116;2023-06-14T10:05:08;12.05;;;8.80;;
59970;SDS011;45825;45.434;9.116;2023-06-14T10:07:40;16.00;;;8.68;;
59970;SDS011;45825;45.434;9.116;2023-06-14T10:10:09;11.02;;;7.82;;
59970;SDS011;45825;45.434;9.116;2023-06-14T10:12:35;14.35;;;6.93;;
59970;SDS011;45825;45.434;9.116;2023-06-14T10:15:01;10.60;;;8.40;;
59970;SDS011;45825;45.434;9.116;2023-06-14T10:22:50;13.48;;;8.50;;
59970;SDS011;45825;45.434;9.116;2023-06-14T10:25:29;13.55;;;8.23;;
59970;SDS011;45825;45.434;9.116;2023-06-14T10:28:14;13.20;;;9.48;;
59970;SDS011;45825;45.434;9.116;2023-06-14T10:31:02;11.45;;;8.77;;
59970;SDS011;45825;45.434;9.116;2023-06-14T10:33:56;21.98;;;8.77;;
59970;SDS011;45825;45.434;9.116;2023-06-14T10:39:00;11.17;;;9.20;;
59970;SDS011;45825;45.434;9.116;2023-06-14T10:41:27;12.30;;;7.68;;
59970;SDS011;45825;45.434;9.116;2023-06-14T10:44:10;11.35;;;7.35;;
59970;SDS011;45825;45.434;9.116;2023-06-14T10:46:58;12.57;;;8.15;;
59970;SDS011;45825;45.434;9.116;2023-06-14T10:49:38;11.07;;;7.80;;
59970;SDS011;45825;45.434;9.116;2023-06-14T10:52:17;11.93;;;7.00;;
59970;SDS011;45825;45.434;9.116;2023-06-14T10:57:50;11.90;;;8.15;;
59970;SDS011;45825;45.434;9.116;2023-06-14T11:00:21;12.93;;;8.90;;
59970;SDS011;45825;45.434;9.116;2023-06-14T11:05:31;11.25;;;7.72;;
59970;SDS011;45825;45.434;9.116;2023-06-14T11:10:41;14.10;;;10.75;;
59970;SDS011;45825;45.434;9.116;2023-06-14T11:13:10;13.25;;;9.80;;
59970;SDS011;45825;45.434;9.116;2023-06-14T11:15:36;15.00;;;8.88;;
59970;SDS011;45825;45.434;9.116;2023-06-14T11:18:05;12.35;;;9.40;;
59970;SDS011;45825;45.434;9.116;2023-06-14T11:20:36;13.50;;;8.70;;
59970;SDS011;45825;45.434;9.116;2023-06-14T11:23:03;15.80;;;10.07;;
59970;SDS011;45825;45.434;9.116;2023-06-14T11:25:29;11.63;;;9.10;;
59970;SDS011;45825;45.434;9.116;2023-06-14T11:27:55;12.68;;;9.40;;
59970;SDS011;45825;45.434;9.116;2023-06-14T11:30:21;12.20;;;9.40;;
59970;SDS011;45825;45.434;9.116;2023-06-14T11:32:50;14.52;;;10.40;;
59970;SDS011;45825;45.434;9.116;2023-06-14T11:35:17;12.37;;;9.40;;
59970;SDS011;45825;45.434;9.116;2023-06-14T11:37:43;12.73;;;10.02;;
59970;SDS011;45825;45.434;9.116;2023-06-14T11:40:10;11.55;;;9.18;;
59970;SDS011;45825;45.434;9.116;2023-06-14T11:42:37;14.50;;;10.52;;
59970;SDS011;45825;45.434;9.116;2023-06-14T11:45:03;13.30;;;10.13;;
59970;SDS011;45825;45.434;9.116;2023-06-14T11:47:32;12.85;;;10.73;;
59970;SDS011;45825;45.434;9.116;2023-06-14T11:50:02;12.05;;;9.45;;
59970;SDS011;45825;45.434;9.116;2023-06-14T11:52:28;14.85;;;11.23;;
59970;SDS011;45825;45.434;9.116;2023-06-14T11:54:53;15.05;;;10.90;;
59970;SDS011;45825;45.434;9.116;2023-06-14T11:57:19;14.77;;;11.10;;
59970;SDS011;45825;45.434;9.116;2023-06-14T11:59:45;11.65;;;9.07;;
59970;SDS011;45825;45.434;9.116;2023-06-14T12:02:18;12.75;;;10.57;;
59970;SDS011;45825;45.434;9.116;2023-06-14T12:04:46;14.18;;;10.02;;
59970;SDS011;45825;45.434;9.116;2023-06-14T12:07:14;9.40;;;8.00;;
59970;SDS011;45825;45.434;9.116;2023-06-14T12:09:41;11.00;;;9.02;;
59970;SDS011;45825;45.434;9.116;2023-06-14T12:12:09;12.68;;;8.82;;
59970;SDS011;45825;45.434;9.116;2023-06-14T12:14:35;9.93;;;7.18;;
59970;SDS011;45825;45.434;9.116;2023-06-14T12:17:07;10.80;;;7.55;;
59970;SDS011;45825;45.434;9.116;2023-06-14T12:19:32;10.45;;;7.40;;
59970;SDS011;45825;45.434;9.116;2023-06-14T12:22:01;12.85;;;7.80;;
59970;SDS011;45825;45.434;9.116;2023-06-14T12:24:30;11.35;;;7.50;;
59970;SDS011;45825;45.434;9.116;2023-06-14T12:26:59;10.43;;;6.75;;
59970;SDS011;45825;45.434;9.116;2023-06-14T12:29:25;12.65;;;7.50;;
59970;SDS011;45825;45.434;9.116;2023-06-14T12:31:50;10.45;;;6.18;;
59970;SDS011;45825;45.434;9.116;2023-06-14T12:34:16;8.38;;;4.97;;
59970;SDS011;45825;45.434;9.116;2023-06-14T12:36:41;9.18;;;5.65;;
59970;SDS011;45825;45.434;9.116;2023-06-14T12:39:09;18.63;;;5.70;;
59970;SDS011;45825;45.434;9.116;2023-06-14T12:41:35;13.70;;;7.40;;
59970;SDS011;45825;45.434;9.116;2023-06-14T12:44:01;11.35;;;8.75;;
59970;SDS011;45825;45.434;9.116;2023-06-14T12:46:29;10.85;;;8.18;;
59970;SDS011;45825;45.434;9.116;2023-06-14T12:48:56;33.20;;;9.85;;
59970;SDS011;45825;45.434;9.116;2023-06-14T12:51:21;10.65;;;5.78;;
59970;SDS011;45825;45.434;9.116;2023-06-14T12:53:47;9.35;;;5.90;;
59970;SDS011;45825;45.434;9.116;2023-06-14T12:56:13;10.02;;;7.10;;
59970;SDS011;45825;45.434;9.116;2023-06-14T12:58:40;10.63;;;7.95;;
59970;SDS011;45825;45.434;9.116;2023-06-14T13:01:06;14.65;;;7.20;;
59970;SDS011;45825;45.434;9.116;2023-06-14T13:03:31;10.60;;;7.20;;
59970;SDS011;45825;45.434;9.116;2023-06-14T13:05:58;11.55;;;7.05;;
59970;SDS011;45825;45.434;9.116;2023-06-14T13:08:23;10.90;;;8.50;;
59970;SDS011;45825;45.434;9.116;2023-06-14T13:10:49;11.10;;;6.80;;
59970;SDS011;45825;45.434;9.116;2023-06-14T13:13:14;14.40;;;7.43;;
59970;SDS011;45825;45.434;9.116;2023-06-14T13:15:40;15.43;;;7.70;;
59970;SDS011;45825;45.434;9.116;2023-06-14T13:18:05;12.00;;;9.55;;
59970;SDS011;45825;45.434;9.116;2023-06-14T13:20:31;11.68;;;9.30;;
59970;SDS011;45825;45.434;9.116;2023-06-14T13:22:56;13.15;;;9.73;;
59970;SDS011;45825;45.434;9.116;2023-06-14T13:25:22;11.30;;;9.52;;
59970;SDS011;45825;45.434;9.116;2023-06-14T13:27:47;12.30;;;8.05;;
59970;SDS011;45825;45.434;9.116;2023-06-14T13:30:13;10.18;;;8.27;;
59970;SDS011;45825;45.434;9.116;2023-06-14T13:32:38;13.25;;;6.95;;
59970;SDS011;45825;45.434;9.116;2023-06-14T13:35:04;15.68;;;6.80;;
59970;SDS011;45825;45.434;9.116;2023-06-14T13:37:30;9.82;;;8.23;;
59970;SDS011;45825;45.434;9.116;2023-06-14T13:39:55;14.85;;;7.25;;
59970;SDS011;45825;45.434;9.116;2023-06-14T13:42:20;11.87;;;7.10;;
59970;SDS011;45825;45.434;9.116;2023-06-14T13:44:45;9.63;;;5.75;;
59970;SDS011;45825;45.434;9.116;2023-06-14T13:47:11;12.18;;;6.25;;
59970;SDS011;45825;45.434;9.116;2023-06-14T13:49:37;12.88;;;7.88;;
59970;SDS011;45825;45.434;9.116;2023-06-14T13:52:02;14.10;;;6.88;;
59970;SDS011;45825;45.434;9.116;2023-06-14T13:54:28;10.52;;;6.18;;
59970;SDS011;45825;45.434;9.116;2023-06-14T13:56:53;8.70;;;6.68;;
59970;SDS011;45825;45.434;9.116;2023-06-14T13:59:19;11.45;;;7.05;;
59970;SDS011;45825;45.434;9.116;2023-06-14T14:01:44;10.45;;;5.90;;
59970;SDS011;45825;45.434;9.116;2023-06-14T14:04:10;8.07;;;5.95;;
59970;SDS011;45825;45.434;9.116;2023-06-14T14:06:36;8.20;;;6.13;;
59970;SDS011;45825;45.434;9.116;2023-06-14T14:09:01;8.27;;;5.95;;
59970;SDS011;45825;45.434;9.116;2023-06-14T14:11:27;8.82;;;5.93;;
59970;SDS011;45825;45.434;9.116;2023-06-14T14:13:53;7.90;;;5.30;;
59970;SDS011;45825;45.434;9.116;2023-06-14T14:16:20;9.18;;;5.70;;
59970;SDS011;45825;45.434;9.116;2023-06-14T14:18:45;9.68;;;6.32;;
59970;SDS011;45825;45.434;9.116;2023-06-14T14:21:11;9.25;;;5.97;;
59970;SDS011;45825;45.434;9.116;2023-06-14T14:23:36;8.52;;;5.53;;
59970;SDS011;45825;45.434;9.116;2023-06-14T14:26:02;8.30;;;5.32;;
59970;SDS011;45825;45.434;9.116;2023-06-14T14:28:29;11.15;;;6.50;;
59970;SDS011;45825;45.434;9.116;2023-06-14T14:30:55;10.73;;;7.10;;
59970;SDS011;45825;45.434;9.116;2023-06-14T14:33:20;10.45;;;7.55;;
59970;SDS011;45825;45.434;9.116;2023-06-14T14:35:46;10.18;;;7.68;;
59970;SDS011;45825;45.434;9.116;2023-06-14T14:38:12;9.50;;;6.95;;
59970;SDS011;45825;45.434;9.116;2023-06-14T14:40:39;10.10;;;7.20;;
59970;SDS011;45825;45.434;9.116;2023-06-14T14:43:05;9.77;;;5.95;;
59970;SDS011;45825;45.434;9.116;2023-06-14T14:45:31;8.43;;;5.60;;
59970;SDS011;45825;45.434;9.116;2023-06-14T14:47:56;9.07;;;5.75;;
59970;SDS011;45825;45.434;9.116;2023-06-14T14:50:22;10.20;;;5.82;;
59970;SDS011;45825;45.434;9.116;2023-06-14T14:52:47;9.13;;;6.85;;
59970;SDS011;45825;45.434;9.116;2023-06-14T14:55:13;8.77;;;6.68;;
59970;SDS011;45825;45.434;9.116;2023-06-14T14:57:38;10.00;;;6.35;;